aviador You're here:

KBIL Decoded Metar

BILLINGS in MT, USA
Report Time2017-07-25 19:53:00
UTC Time2017-07-25 20:45:29
Flight Rules vfr VFR
Wind120° at 05 kt
W.Decomp.*RWY 10: 5.0 kt HW 0.5 kt RCW
RWY 07: 4.0 kt HW 2.9 kt RCW
W.Rank120° ranks 35
Current wind is below 120° avg. (6.8)
Visibility9999 m
Phenomena:N/A
Clouds:Broken 095 Hf
Overcast 160 Hf
Expected CloudBase > 7,600 ft AGL from Temp-Dew spread
Ceiling9,500 ft
Temp23°C (ISA +15)
Dew Point04°C (29% RH)
AAT19.9°C
QNH1020 hPa
Density Alt5,200 ft
Elevation3,579 ft
Report Wrong Elevation
Raw Report
METAR KBIL 251953Z 12005KT 10SM BKN095 OVC160 23/04 A3013 RMK AO2 SLP170
VIRGA SW-N T02280044=

Extra information for KBIL:More info

Metar Taf Metar & Taf Last 4 Metars F.Rules Stats Wind Profile Meteogram Temp Stats Airport Information Weather charts Add Link Nearby VenuesMetar ALERT Operation Metar Decoded Social comments

AIRNAV info for KBIL